createdAt,value
2023-04-07T00:13:12.018Z,6.9
2023-04-07T00:33:12.056Z,6.97
2023-04-07T00:53:11.939Z,7
2023-04-07T01:13:11.927Z,7
2023-04-07T01:33:11.881Z,7
2023-04-07T01:53:11.848Z,7.02
2023-04-07T02:13:11.832Z,7.06
2023-04-07T02:33:11.793Z,7.1
2023-04-07T02:53:11.746Z,7.11
2023-04-07T03:13:11.729Z,7.16
2023-04-07T03:33:11.684Z,7.19
2023-04-07T03:53:11.675Z,7.23
2023-04-07T04:13:11.641Z,7.27
2023-04-07T04:33:11.587Z,7.24
2023-04-07T05:13:11.539Z,7.11
2023-04-07T05:53:11.486Z,7.05
2023-04-07T06:13:11.453Z,7
2023-04-07T06:33:11.410Z,7.04
2023-04-07T06:53:11.378Z,7.19
2023-04-07T08:13:11.243Z,7.84
2023-04-07T08:33:11.207Z,8.1
2023-04-07T08:53:11.175Z,8.41
2023-04-07T09:13:11.136Z,8.44
2023-04-07T09:33:11.238Z,8.33
2023-04-07T09:53:11.126Z,8.24
2023-04-07T10:13:11.041Z,8.35
2023-04-07T10:33:11.018Z,8.51
2023-04-07T10:53:10.994Z,8.41
2023-04-07T11:13:10.942Z,8.49
2023-04-07T11:33:10.919Z,8.62
2023-04-07T11:53:10.903Z,8.73
2023-04-07T12:13:10.848Z,8.7
2023-04-07T12:33:10.816Z,8.58
2023-04-07T13:13:10.748Z,8.63
2023-04-07T13:33:10.718Z,8.57
2023-04-07T13:53:10.693Z,8.58
2023-04-07T14:13:10.641Z,8.65
2023-04-07T14:33:10.718Z,8.73
2023-04-07T14:53:10.594Z,8.79
2023-04-07T15:13:10.542Z,8.81
2023-04-07T15:33:10.536Z,8.84
2023-04-07T15:53:10.472Z,8.95
2023-04-07T16:13:10.439Z,8.98
2023-04-07T16:33:10.463Z,8.92
2023-04-07T16:53:10.387Z,8.94
2023-04-07T17:13:10.350Z,8.94
2023-04-07T17:53:10.273Z,8.69
2023-04-07T18:13:10.244Z,8.54
2023-04-07T18:53:10.166Z,8.3
2023-04-07T19:13:10.197Z,8.07
2023-04-07T19:33:10.110Z,7.85
2023-04-07T21:53:09.893Z,4.26
2023-04-07T22:13:09.866Z,3.91
2023-04-07T22:33:10.510Z,3.37
2023-04-07T22:53:09.809Z,3.39
2023-04-07T23:13:09.775Z,3.05
2023-04-07T23:33:09.756Z,2.78
2023-04-07T23:53:09.728Z,2.57
